Time;durP1;ratioP1;P1;durP2;ratioP2;P2;SDS_P1;SDS_P2;PMS_P1;PMS_P2;Temp;Humidity;BMP_temperature;BMP_pressure;BME280_temperature;BME280_humidity;BME280_pressure;Samples;Min_cycle;Max_cycle;Signal;HPM_P1;HPM_P2
2021/04/12 00:02:00;;;;;;;0.87;0.30;;;23.40;30.00;;;;;;5034443;28;20891;-58
2021/04/12 00:04:37;;;;;;;1.00;0.40;;;23.40;29.90;;;;;;5034055;28;20886;-59
2021/04/12 00:07:18;;;;;;;0.85;0.40;;;23.30;29.90;;;;;;5034420;28;20441;-58
2021/04/12 00:10:03;;;;;;;0.63;0.40;;;23.30;29.90;;;;;;5034351;28;20398;-58
2021/04/12 00:12:36;;;;;;;0.70;0.30;;;23.30;29.90;;;;;;5034080;28;20478;-58
2021/04/12 00:15:28;;;;;;;0.80;0.40;;;23.40;29.90;;;;;;5034291;28;20902;-58
2021/04/12 00:17:59;;;;;;;1.30;0.40;;;23.40;29.90;;;;;;5033058;28;20498;-59
2021/04/12 00:20:39;;;;;;;0.93;0.30;;;23.40;29.90;;;;;;5033777;28;20475;-60
2021/04/12 00:23:12;;;;;;;0.80;0.40;;;23.40;29.90;;;;;;5034180;28;20879;-58
2021/04/12 00:25:53;;;;;;;1.10;0.40;;;23.30;29.90;;;;;;5033950;28;20398;-62
2021/04/12 00:28:33;;;;;;;1.00;0.40;;;23.30;29.90;;;;;;5033589;28;20388;-58
2021/04/12 00:31:08;;;;;;;0.75;0.30;;;23.30;30.00;;;;;;5033891;28;20397;-58
2021/04/12 00:33:59;;;;;;;0.90;0.40;;;23.30;30.00;;;;;;5032680;28;20431;-58
2021/04/12 00:36:44;;;;;;;0.90;0.40;;;23.30;30.00;;;;;;5032006;28;20814;-58
2021/04/12 00:39:16;;;;;;;0.95;0.30;;;23.30;30.00;;;;;;5033850;28;20380;-58
2021/04/12 00:42:06;;;;;;;0.70;0.30;;;23.20;30.00;;;;;;5033745;28;20395;-58
2021/04/12 00:44:50;;;;;;;0.75;0.30;;;23.20;30.00;;;;;;5033523;28;20398;-58
2021/04/12 00:47:49;;;;;;;0.70;0.30;;;23.20;30.00;;;;;;5033766;28;20447;-58
2021/04/12 00:50:37;;;;;;;0.80;0.30;;;23.20;30.00;;;;;;5033284;28;20434;-58
2021/04/12 00:53:28;;;;;;;0.88;0.40;;;23.10;30.00;;;;;;5032120;28;20402;-58
2021/04/12 00:56:02;;;;;;;1.25;0.45;;;23.10;30.20;;;;;;5032326;28;20423;-58
2021/04/12 00:58:45;;;;;;;1.10;0.43;;;23.20;30.20;;;;;;5031816;28;20391;-57
2021/04/12 01:01:11;;;;;;;1.08;0.40;;;23.10;30.20;;;;;;5032106;28;20403;-57
2021/04/12 01:03:58;;;;;;;0.80;0.40;;;23.10;30.20;;;;;;5033355;28;20740;-58
2021/04/12 01:06:50;;;;;;;0.88;0.50;;;23.10;30.10;;;;;;5032951;28;20474;-58
2021/04/12 01:09:19;;;;;;;0.80;0.40;;;23.10;30.20;;;;;;5033408;28;20386;-58
2021/04/12 01:11:59;;;;;;;0.77;0.40;;;23.10;30.10;;;;;;5031981;28;20449;-57
2021/04/12 01:14:27;;;;;;;1.02;0.47;;;23.10;30.20;;;;;;5032708;28;20395;-57
2021/04/12 01:17:11;;;;;;;1.00;0.40;;;23.10;30.30;;;;;;5033138;28;20415;-58
2021/04/12 01:20:07;;;;;;;0.70;0.40;;;23.10;30.20;;;;;;5031824;28;20391;-57
2021/04/12 01:23:16;;;;;;;1.20;0.50;;;23.10;30.30;;;;;;5032773;28;20421;-58
2021/04/12 01:26:15;;;;;;;0.77;0.40;;;23.10;30.30;;;;;;5033061;28;20387;-58
2021/04/12 01:29:19;;;;;;;1.00;0.50;;;23.10;30.30;;;;;;5032761;28;20398;-58
2021/04/12 01:32:22;;;;;;;0.65;0.30;;;23.10;30.30;;;;;;5032785;28;20387;-58
2021/04/12 01:35:13;;;;;;;0.85;0.40;;;23.10;30.20;;;;;;5032818;28;20399;-58
2021/04/12 01:37:46;;;;;;;1.02;0.50;;;23.10;30.20;;;;;;5032783;28;20395;-58
2021/04/12 01:40:26;;;;;;;0.90;0.40;;;23.20;30.00;;;;;;5032497;28;20899;-58
2021/04/12 01:42:52;;;;;;;0.77;0.38;;;23.20;30.00;;;;;;5032661;28;20409;-58
2021/04/12 01:45:26;;;;;;;0.80;0.40;;;23.20;30.00;;;;;;5032479;28;20894;-58
2021/04/12 01:48:16;;;;;;;0.70;0.40;;;23.20;30.00;;;;;;5032653;28;20445;-58
2021/04/12 01:51:13;;;;;;;1.10;0.45;;;23.20;30.00;;;;;;5032517;28;21037;-58
2021/04/12 01:54:12;;;;;;;0.80;0.40;;;23.20;30.10;;;;;;5031049;28;20469;-58
2021/04/12 01:56:57;;;;;;;1.00;0.38;;;23.20;30.30;;;;;;5031005;28;20453;-58
2021/04/12 01:59:45;;;;;;;1.30;0.43;;;23.10;30.80;;;;;;5032369;28;20486;-58
2021/04/12 02:02:29;;;;;;;0.68;0.40;;;23.10;30.20;;;;;;5032136;28;20391;-58
2021/04/12 02:05:07;;;;;;;0.75;0.40;;;23.10;30.10;;;;;;5031879;28;20426;-58
2021/04/12 02:07:50;;;;;;;0.60;0.40;;;23.10;30.30;;;;;;5032187;28;20387;-58
2021/04/12 02:10:21;;;;;;;0.88;0.45;;;23.20;30.20;;;;;;5031750;28;20756;-58
2021/04/12 02:12:58;;;;;;;0.70;0.40;;;23.20;30.10;;;;;;5032144;28;20434;-58
2021/04/12 02:15:49;;;;;;;0.70;0.30;;;23.20;30.10;;;;;;5031995;28;20464;-58
2021/04/12 02:18:36;;;;;;;0.50;0.40;;;23.20;30.10;;;;;;5031616;28;20484;-58
2021/04/12 02:21:13;;;;;;;0.40;0.30;;;23.20;30.10;;;;;;5030668;28;20433;-57
2021/04/12 02:23:48;;;;;;;1.05;0.40;;;23.20;30.10;;;;;;5031798;28;20382;-58
2021/04/12 02:26:51;;;;;;;0.63;0.38;;;23.20;30.00;;;;;;5030382;28;20538;-58
2021/04/12 02:29:21;;;;;;;0.73;0.40;;;23.20;30.10;;;;;;5031842;28;20891;-58
2021/04/12 02:32:09;;;;;;;0.60;0.40;;;23.20;30.10;;;;;;5031867;28;20855;-57
2021/04/12 02:35:05;;;;;;;0.60;0.40;;;23.20;30.10;;;;;;5031540;28;20811;-58
2021/04/12 02:37:39;;;;;;;0.50;0.30;;;23.20;30.00;;;;;;5031727;28;20514;-58
2021/04/12 02:40:25;;;;;;;0.60;0.37;;;23.20;30.00;;;;;;5030521;28;20975;-58
2021/04/12 02:43:16;;;;;;;0.60;0.40;;;23.20;30.10;;;;;;5031890;28;20441;-58
2021/04/12 02:45:44;;;;;;;0.60;0.40;;;23.20;30.10;;;;;;5031443;28;20418;-58
2021/04/12 02:48:34;;;;;;;0.60;0.40;;;23.20;30.10;;;;;;5031349;28;20418;-58
2021/04/12 02:51:31;;;;;;;0.80;0.30;;;23.20;30.10;;;;;;5030396;28;20395;-58
2021/04/12 02:54:39;;;;;;;0.50;0.30;;;23.10;30.10;;;;;;5030966;28;20673;-58
2021/04/12 02:57:26;;;;;;;0.57;0.38;;;23.10;30.10;;;;;;5030344;28;20454;-58
2021/04/12 03:00:22;;;;;;;0.90;0.40;;;23.20;30.10;;;;;;5031509;28;20390;-58
2021/04/12 03:02:56;;;;;;;0.95;0.40;;;23.10;30.10;;;;;;5031482;28;20452;-58
2021/04/12 03:05:34;;;;;;;0.50;0.30;;;23.10;30.10;;;;;;5031428;28;20391;-58
2021/04/12 03:08:28;;;;;;;1.33;0.43;;;23.10;30.60;;;;;;5029559;28;20395;-57
2021/04/12 03:11:12;;;;;;;1.90;0.40;;;23.00;30.60;;;;;;5030967;28;20384;-58
2021/04/12 03:14:03;;;;;;;2.40;0.40;;;22.90;31.00;;;;;;5030776;28;20414;-58
2021/04/12 03:16:56;;;;;;;0.80;0.40;;;23.00;31.30;;;;;;5034794;28;20472;-57
2021/04/12 03:19:36;;;;;;;0.60;0.30;;;23.00;31.20;;;;;;5035346;28;20391;-57
2021/04/12 03:22:07;;;;;;;0.90;0.40;;;23.10;30.50;;;;;;5035415;28;20481;-60
2021/04/12 03:25:06;;;;;;;1.77;0.40;;;23.00;30.80;;;;;;5034723;28;20375;-59
2021/04/12 03:27:56;;;;;;;1.40;0.30;;;23.00;31.70;;;;;;5034366;28;20394;-57
2021/04/12 03:31:14;;;;;;;2.28;0.47;;;23.10;31.60;;;;;;5034715;28;20379;-58
2021/04/12 03:33:42;;;;;;;0.93;0.40;;;23.10;31.70;;;;;;5033733;28;20405;-58
2021/04/12 03:36:18;;;;;;;3.30;0.50;;;23.10;31.90;;;;;;5035095;28;20486;-57
2021/04/12 03:39:08;;;;;;;2.03;0.40;;;23.10;31.60;;;;;;5034983;28;20391;-57
2021/04/12 03:41:52;;;;;;;1.33;0.50;;;23.10;31.70;;;;;;5034111;28;20387;-58
2021/04/12 03:44:49;;;;;;;1.05;0.50;;;23.10;31.90;;;;;;5034681;28;20379;-57
2021/04/12 03:47:30;;;;;;;1.73;0.50;;;23.10;31.90;;;;;;5033565;28;20402;-57
2021/04/12 03:50:26;;;;;;;1.50;0.47;;;23.10;32.20;;;;;;5034828;28;20537;-59
2021/04/12 03:53:03;;;;;;;1.50;0.60;;;23.10;31.50;;;;;;5034713;28;20418;-57
2021/04/12 03:55:44;;;;;;;3.28;0.60;;;23.10;31.40;;;;;;5033336;28;20438;-57
2021/04/12 03:58:28;;;;;;;5.45;0.77;;;23.10;32.60;;;;;;5034602;28;20406;-57
2021/04/12 04:01:20;;;;;;;3.70;0.65;;;23.10;33.20;;;;;;5034600;28;20395;-57
2021/04/12 04:03:57;;;;;;;2.63;0.60;;;23.20;33.50;;;;;;5032707;28;20395;-57
2021/04/12 04:06:47;;;;;;;4.50;0.75;;;23.30;34.00;;;;;;5033960;28;20391;-57
2021/04/12 04:09:19;;;;;;;10.65;9.75;;;23.40;34.50;;;;;;5034386;28;20463;-57
2021/04/12 04:12:04;;;;;;;5.30;4.78;;;23.60;36.30;;;;;;5034305;28;20379;-57
2021/04/12 04:14:45;;;;;;;4.60;3.25;;;23.70;34.90;;;;;;5033734;28;20813;-57
2021/04/12 04:17:38;;;;;;;3.80;2.30;;;23.70;34.00;;;;;;5034202;28;20465;-56
2021/04/12 04:20:35;;;;;;;5.40;2.10;;;23.70;33.50;;;;;;5034069;28;20379;-57
2021/04/12 04:23:19;;;;;;;4.55;1.50;;;23.70;33.20;;;;;;5034131;28;20915;-57
2021/04/12 04:26:03;;;;;;;3.22;1.30;;;23.70;32.80;;;;;;5033714;28;20390;-57
2021/04/12 04:28:42;;;;;;;4.70;1.42;;;23.80;32.20;;;;;;5033535;28;20393;-57
2021/04/12 04:31:25;;;;;;;4.93;0.95;;;24.00;31.90;;;;;;5036145;28;20398;-58
2021/04/12 04:34:10;;;;;;;5.82;1.30;;;24.10;31.90;;;;;;5043386;28;20390;-57
2021/04/12 04:37:03;;;;;;;7.07;1.10;;;24.10;31.90;;;;;;5043346;28;20419;-58
2021/04/12 04:39:40;;;;;;;6.30;1.10;;;24.10;32.00;;;;;;5043104;28;20391;-58
2021/04/12 04:42:27;;;;;;;3.58;1.00;;;24.00;32.10;;;;;;5045159;28;20419;-57
2021/04/12 04:44:56;;;;;;;6.68;1.10;;;23.90;32.00;;;;;;5040280;28;20406;-57
2021/04/12 04:47:59;;;;;;;6.00;0.90;;;23.90;32.30;;;;;;5043781;28;20490;-58
2021/04/12 04:50:34;;;;;;;4.97;1.07;;;23.80;32.30;;;;;;5052232;28;20444;-57
2021/04/12 04:53:18;;;;;;;3.42;0.70;;;23.80;32.10;;;;;;5051866;28;20737;-58
2021/04/12 04:56:04;;;;;;;3.58;0.90;;;23.70;31.50;;;;;;5034636;28;20423;-58
2021/04/12 04:58:33;;;;;;;5.32;0.80;;;23.60;31.60;;;;;;5031634;28;20521;-57
2021/04/12 05:01:40;;;;;;;6.68;1.20;;;23.60;31.80;;;;;;5033501;28;20395;-58
2021/04/12 05:04:09;;;;;;;5.77;1.00;;;23.50;32.00;;;;;;5031503;28;20430;-57
2021/04/12 05:06:53;;;;;;;6.28;1.02;;;23.40;31.80;;;;;;5031577;28;20747;-57
2021/04/12 05:09:39;;;;;;;7.07;0.90;;;23.40;33.30;;;;;;5033168;28;20946;-64
2021/04/12 05:12:47;;;;;;;7.35;1.20;;;23.40;32.20;;;;;;5033087;28;20421;-57
2021/04/12 05:15:57;;;;;;;5.13;1.00;;;23.30;32.00;;;;;;5028941;28;20402;-57
2021/04/12 05:18:39;;;;;;;3.10;0.65;;;23.30;31.70;;;;;;5031216;28;20402;-57
2021/04/12 05:21:25;;;;;;;3.97;1.00;;;23.20;31.80;;;;;;5033074;28;20546;-58
2021/04/12 05:24:07;;;;;;;5.83;0.83;;;23.20;32.40;;;;;;5032999;28;20475;-58
2021/04/12 05:26:42;;;;;;;5.20;1.05;;;23.30;31.70;;;;;;5026874;28;20406;-57
2021/04/12 05:29:38;;;;;;;4.60;0.70;;;23.30;31.70;;;;;;5032933;28;20525;-57
2021/04/12 05:32:12;;;;;;;3.20;0.80;;;23.30;31.60;;;;;;5032845;28;20433;-57
2021/04/12 05:35:15;;;;;;;4.22;0.60;;;23.20;31.50;;;;;;5032375;28;20391;-57
2021/04/12 05:38:02;;;;;;;4.75;0.90;;;23.20;31.40;;;;;;5032026;28;20902;-57
2021/04/12 05:40:47;;;;;;;3.28;0.60;;;23.20;31.40;;;;;;5032226;28;20384;-58
2021/04/12 05:43:46;;;;;;;2.47;0.70;;;23.30;31.40;;;;;;5031439;28;20439;-57
2021/04/12 05:46:15;;;;;;;3.45;0.70;;;23.30;31.30;;;;;;5031112;28;20807;-58
2021/04/12 05:49:01;;;;;;;2.90;0.70;;;23.20;31.20;;;;;;5032063;28;20414;-57
2021/04/12 05:51:54;;;;;;;2.80;0.60;;;23.20;31.20;;;;;;5031111;28;20419;-57
2021/04/12 05:54:40;;;;;;;2.30;0.87;;;23.20;31.30;;;;;;5032101;28;20419;-57
2021/04/12 05:57:12;;;;;;;2.28;0.75;;;23.20;31.30;;;;;;5032322;28;21014;-57
2021/04/12 06:00:00;;;;;;;2.72;0.63;;;23.20;31.20;;;;;;5032370;28;20387;-57
2021/04/12 06:02:51;;;;;;;2.00;0.68;;;23.20;31.20;;;;;;5031900;28;20903;-57
2021/04/12 06:05:38;;;;;;;3.33;0.80;;;23.20;31.10;;;;;;5031200;28;20387;-57
2021/04/12 06:08:34;;;;;;;1.55;0.60;;;23.20;31.20;;;;;;5030967;28;20395;-57
2021/04/12 06:11:27;;;;;;;2.13;0.60;;;23.20;31.10;;;;;;5032197;28;20387;-57
2021/04/12 06:14:02;;;;;;;1.30;0.70;;;23.20;31.10;;;;;;5032217;28;20390;-57
2021/04/12 06:16:46;;;;;;;2.08;0.63;;;23.20;31.10;;;;;;5031517;28;20430;-58
2021/04/12 06:19:38;;;;;;;1.75;0.60;;;23.10;31.10;;;;;;5032027;28;20779;-57
2021/04/12 06:22:10;;;;;;;1.42;0.60;;;23.10;31.10;;;;;;5022876;28;20485;-57
2021/04/12 06:24:35;;;;;;;1.83;0.50;;;23.10;31.10;;;;;;5031474;28;20386;-57
2021/04/12 06:27:48;;;;;;;1.58;0.60;;;23.10;31.20;;;;;;5031972;28;20894;-57
2021/04/12 06:30:35;;;;;;;1.17;0.60;;;23.10;31.10;;;;;;5031309;28;20756;-57
2021/04/12 06:33:26;;;;;;;2.00;0.50;;;23.10;31.00;;;;;;5031858;28;20391;-58
2021/04/12 06:36:26;;;;;;;1.30;0.50;;;23.10;31.00;;;;;;5031688;28;20482;-57
2021/04/12 06:39:32;;;;;;;1.35;0.50;;;23.10;31.00;;;;;;5031598;28;20754;-57
2021/04/12 06:42:09;;;;;;;0.90;0.40;;;23.10;31.00;;;;;;5031659;28;20383;-57
2021/04/12 06:44:59;;;;;;;1.10;0.60;;;23.10;31.00;;;;;;5031231;28;20496;-57
2021/04/12 06:48:09;;;;;;;1.40;0.50;;;23.10;31.00;;;;;;5031660;28;20487;-57
2021/04/12 06:50:53;;;;;;;1.63;0.60;;;23.10;31.00;;;;;;5028821;28;20399;-57
2021/04/12 06:53:37;;;;;;;1.40;0.60;;;23.10;31.00;;;;;;5031561;28;20780;-58
2021/04/12 06:56:18;;;;;;;1.15;0.50;;;23.10;31.00;;;;;;5031374;28;20403;-57
2021/04/12 06:58:43;;;;;;;1.13;0.60;;;23.10;31.00;;;;;;5030993;28;20942;-58
2021/04/12 07:01:40;;;;;;;1.13;0.57;;;23.10;30.90;;;;;;5031494;28;20379;-57
2021/04/12 07:04:34;;;;;;;1.65;0.60;;;23.10;30.90;;;;;;5031613;28;20399;-58
2021/04/12 07:07:36;;;;;;;1.52;0.70;;;23.00;30.90;;;;;;5031496;28;20444;-57
2021/04/12 07:10:40;;;;;;;1.10;0.60;;;23.10;31.00;;;;;;5030085;28;20445;-58
2021/04/12 07:13:40;;;;;;;1.90;0.60;;;23.10;31.00;;;;;;5031357;28;20387;-58
2021/04/12 07:17:03;;;;;;;1.20;0.60;;;23.00;30.90;;;;;;5019113;28;20419;-57
2021/04/12 07:20:06;;;;;;;0.93;0.60;;;23.00;30.90;;;;;;5029060;28;20482;-57
2021/04/12 07:23:14;;;;;;;1.45;0.70;;;23.00;31.00;;;;;;5028635;28;20387;-57
2021/04/12 07:26:17;;;;;;;1.00;0.50;;;23.00;30.90;;;;;;5029891;28;20402;-57
2021/04/12 07:29:09;;;;;;;1.70;0.60;;;23.00;30.90;;;;;;5030832;28;20729;-57
2021/04/12 07:31:47;;;;;;;1.35;0.90;;;23.00;30.90;;;;;;5029878;28;20387;-57
2021/04/12 07:34:37;;;;;;;1.47;0.90;;;23.00;30.90;;;;;;5029949;28;20519;-57
2021/04/12 07:37:30;;;;;;;1.40;0.90;;;23.00;31.00;;;;;;5031196;28;20425;-57
2021/04/12 07:40:34;;;;;;;1.27;0.90;;;23.00;30.90;;;;;;5029877;28;20409;-57
2021/04/12 07:43:13;;;;;;;1.60;0.90;;;23.00;31.00;;;;;;5029866;28;20486;-57
2021/04/12 07:46:04;;;;;;;1.70;1.10;;;22.90;30.90;;;;;;5030849;28;20410;-57
2021/04/12 07:48:46;;;;;;;1.70;0.90;;;22.90;30.90;;;;;;5030487;28;20391;-57
2021/04/12 07:51:35;;;;;;;1.17;0.85;;;22.90;31.00;;;;;;5031233;28;20391;-57
2021/04/12 07:54:39;;;;;;;1.60;0.90;;;22.90;31.00;;;;;;5029758;28;20445;-58
2021/04/12 07:57:26;;;;;;;1.25;0.80;;;22.90;31.00;;;;;;5030860;28;20419;-58
2021/04/12 08:00:31;;;;;;;1.08;0.88;;;22.90;31.10;;;;;;5030946;28;20744;-57
2021/04/12 08:03:27;;;;;;;1.42;0.80;;;22.90;31.00;;;;;;5034349;28;20863;-57
2021/04/12 08:06:23;;;;;;;1.45;0.80;;;22.90;31.00;;;;;;5034586;28;20395;-57
2021/04/12 08:09:10;;;;;;;1.70;1.02;;;22.90;31.00;;;;;;5034050;28;20386;-57
2021/04/12 08:11:45;;;;;;;1.70;0.85;;;22.90;31.00;;;;;;5034408;28;20390;-57
2021/04/12 08:14:23;;;;;;;1.75;0.90;;;22.90;31.00;;;;;;5033122;28;20391;-58
2021/04/12 08:16:51;;;;;;;1.20;0.80;;;22.90;31.00;;;;;;5032569;28;20415;-57
2021/04/12 08:19:36;;;;;;;1.33;0.90;;;22.90;31.00;;;;;;5034300;28;20395;-58
2021/04/12 08:22:13;;;;;;;1.35;0.90;;;22.80;31.00;;;;;;5034297;28;20391;-57
2021/04/12 08:24:44;;;;;;;1.30;0.90;;;22.80;31.10;;;;;;5033662;28;20402;-57
2021/04/12 08:27:36;;;;;;;1.33;0.90;;;22.80;31.10;;;;;;5034197;28;21203;-57
2021/04/12 08:30:11;;;;;;;1.33;0.90;;;22.80;31.10;;;;;;5034069;28;20399;-58
2021/04/12 08:33:30;;;;;;;1.20;0.77;;;22.80;31.00;;;;;;5033335;28;20395;-57
2021/04/12 08:36:26;;;;;;;1.30;0.75;;;22.80;31.00;;;;;;5031808;28;20427;-57
2021/04/12 08:39:11;;;;;;;1.20;0.70;;;22.90;31.00;;;;;;5033745;28;20859;-57
2021/04/12 08:42:00;;;;;;;1.20;0.70;;;22.90;31.00;;;;;;5033957;28;20398;-57
2021/04/12 08:45:04;;;;;;;1.20;0.70;;;22.80;30.90;;;;;;5032438;28;20430;-57
2021/04/12 08:48:07;;;;;;;0.93;0.60;;;22.90;31.00;;;;;;5033806;28;20414;-58
2021/04/12 08:51:04;;;;;;;1.10;0.60;;;22.80;30.80;;;;;;5032275;28;20455;-57
2021/04/12 08:54:08;;;;;;;1.05;0.70;;;22.90;30.90;;;;;;5032391;28;20403;-57
2021/04/12 08:56:52;;;;;;;1.30;0.50;;;22.80;30.80;;;;;;5032802;28;20418;-57
2021/04/12 08:59:56;;;;;;;0.90;0.57;;;22.80;30.80;;;;;;5032250;28;20391;-57
2021/04/12 09:02:40;;;;;;;1.00;0.63;;;22.90;30.80;;;;;;5033504;28;20497;-57
2021/04/12 09:05:34;;;;;;;1.02;0.60;;;22.80;30.70;;;;;;5033404;28;20387;-57
2021/04/12 09:08:17;;;;;;;1.00;0.70;;;22.80;30.80;;;;;;5033262;28;20413;-57
2021/04/12 09:11:15;;;;;;;1.07;0.70;;;22.80;30.70;;;;;;5031707;28;20525;-57
2021/04/12 09:14:16;;;;;;;0.85;0.50;;;22.90;30.90;;;;;;5033122;28;20410;-57
2021/04/12 09:17:00;;;;;;;0.90;0.52;;;22.80;31.00;;;;;;5031186;28;20423;-58
2021/04/12 09:19:56;;;;;;;0.90;0.50;;;22.80;30.70;;;;;;5033119;28;20391;-57
2021/04/12 09:22:52;;;;;;;0.90;0.60;;;22.80;30.70;;;;;;5031754;28;20453;-57
2021/04/12 09:25:52;;;;;;;0.80;0.50;;;22.80;30.70;;;;;;5033093;28;20437;-58
2021/04/12 09:28:30;;;;;;;0.60;0.40;;;22.80;30.60;;;;;;5033079;28;20391;-58
2021/04/12 09:31:14;;;;;;;0.98;0.50;;;22.80;30.60;;;;;;5032793;28;20395;-57
2021/04/12 09:33:53;;;;;;;0.80;0.50;;;22.80;30.60;;;;;;5032913;28;20392;-58
2021/04/12 09:36:48;;;;;;;0.57;0.40;;;22.80;30.50;;;;;;5032774;28;20460;-57
2021/04/12 09:40:06;;;;;;;0.80;0.45;;;22.80;30.50;;;;;;5031668;28;20395;-60
2021/04/12 09:42:55;;;;;;;0.80;0.50;;;22.80;30.40;;;;;;5032515;28;20387;-57
2021/04/12 09:45:47;;;;;;;0.60;0.40;;;22.80;30.40;;;;;;5031317;28;20926;-57
2021/04/12 09:48:52;;;;;;;0.60;0.43;;;22.80;30.40;;;;;;5031231;28;20441;-58
2021/04/12 09:51:39;;;;;;;0.77;0.50;;;22.80;30.40;;;;;;5031338;28;20414;-58
2021/04/12 09:54:31;;;;;;;0.60;0.30;;;22.80;30.40;;;;;;5032494;28;20383;-57
2021/04/12 09:57:16;;;;;;;1.10;0.40;;;22.80;30.40;;;;;;5030881;28;20445;-58
2021/04/12 10:00:18;;;;;;;0.90;0.50;;;22.80;30.30;;;;;;5032374;28;20383;-57
2021/04/12 10:03:15;;;;;;;0.60;0.43;;;22.80;30.30;;;;;;5030601;28;20392;-57
2021/04/12 10:06:14;;;;;;;0.85;0.50;;;22.80;30.30;;;;;;5031011;28;20482;-57
2021/04/12 10:08:51;;;;;;;0.60;0.40;;;22.80;30.30;;;;;;5031733;28;20393;-58
2021/04/12 10:11:25;;;;;;;0.85;0.40;;;22.70;30.30;;;;;;5032099;28;20486;-57
2021/04/12 10:14:08;;;;;;;0.80;0.45;;;22.80;30.30;;;;;;5032193;28;20478;-57
2021/04/12 10:16:40;;;;;;;0.60;0.40;;;22.80;30.20;;;;;;5031800;28;20457;-57
2021/04/12 10:19:09;;;;;;;0.65;0.50;;;22.70;30.10;;;;;;5030833;28;20388;-57
2021/04/12 10:21:58;;;;;;;0.60;0.47;;;22.70;30.10;;;;;;5030606;28;20760;-57
2021/04/12 10:24:32;;;;;;;0.50;0.32;;;22.70;30.20;;;;;;5031500;28;20398;-57
2021/04/12 10:27:17;;;;;;;0.60;0.40;;;22.70;30.10;;;;;;5031807;28;20431;-57
2021/04/12 10:29:57;;;;;;;0.63;0.40;;;22.70;30.10;;;;;;5031897;28;20487;-59
2021/04/12 10:32:31;;;;;;;0.70;0.40;;;22.70;30.10;;;;;;5031910;28;20394;-57
2021/04/12 10:35:07;;;;;;;0.55;0.35;;;22.70;30.10;;;;;;5030414;28;20573;-57
2021/04/12 10:37:33;;;;;;;0.60;0.43;;;22.80;30.00;;;;;;5031608;28;20497;-57
2021/04/12 10:40:05;;;;;;;0.50;0.37;;;22.70;30.00;;;;;;5031861;28;20938;-57
2021/04/12 10:42:33;;;;;;;0.50;0.30;;;22.70;30.00;;;;;;5031779;28;20419;-57
2021/04/12 10:45:09;;;;;;;0.80;0.40;;;22.70;30.00;;;;;;5029977;28;20403;-58
2021/04/12 10:47:52;;;;;;;0.60;0.40;;;22.70;30.00;;;;;;5031643;28;20449;-58
2021/04/12 10:50:17;;;;;;;0.70;0.50;;;22.70;30.00;;;;;;5031764;28;20466;-57
2021/04/12 10:53:09;;;;;;;0.60;0.40;;;22.70;30.00;;;;;;5031157;28;20387;-57
2021/04/12 10:55:46;;;;;;;0.53;0.30;;;22.70;30.00;;;;;;5030461;28;20480;-57
2021/04/12 10:58:31;;;;;;;0.32;0.20;;;22.70;30.00;;;;;;5031572;28;20398;-57
2021/04/12 11:01:06;;;;;;;0.40;0.20;;;22.70;30.00;;;;;;5031125;28;20418;-58
2021/04/12 11:04:04;;;;;;;0.30;0.22;;;22.70;30.00;;;;;;5029460;28;20394;-57
2021/04/12 11:06:51;;;;;;;0.70;0.30;;;22.70;30.00;;;;;;5031439;28;20871;-58
2021/04/12 11:09:36;;;;;;;0.75;0.40;;;22.70;30.00;;;;;;5030184;28;20395;-59
2021/04/12 11:12:15;;;;;;;0.50;0.30;;;22.70;30.00;;;;;;5031440;28;20395;-57
2021/04/12 11:15:08;;;;;;;0.50;0.30;;;22.70;29.90;;;;;;5030844;28;20477;-57
2021/04/12 11:17:43;;;;;;;0.40;0.30;;;22.70;30.00;;;;;;5029946;28;20498;-57
2021/04/12 11:20:31;;;;;;;0.60;0.30;;;22.70;29.90;;;;;;5031348;28;20383;-57
2021/04/12 11:23:16;;;;;;;0.38;0.30;;;22.70;29.90;;;;;;5029596;28;20392;-57
2021/04/12 11:26:13;;;;;;;0.40;0.30;;;22.70;30.00;;;;;;5031263;28;20383;-57
2021/04/12 11:28:43;;;;;;;0.30;0.30;;;22.70;29.90;;;;;;5030993;28;20863;-57
2021/04/12 11:31:33;;;;;;;0.40;0.30;;;22.70;29.90;;;;;;5031365;28;20414;-57
2021/04/12 11:34:39;;;;;;;0.40;0.30;;;22.70;29.90;;;;;;5031304;28;20375;-58
2021/04/12 11:37:14;;;;;;;0.40;0.30;;;22.70;29.90;;;;;;5030615;28;20455;-58
2021/04/12 11:39:58;;;;;;;0.32;0.25;;;22.70;29.90;;;;;;5032898;28;20383;-57
2021/04/12 11:42:31;;;;;;;0.28;0.22;;;22.70;29.90;;;;;;5034219;28;20403;-57
2021/04/12 11:45:09;;;;;;;0.28;0.25;;;22.70;29.90;;;;;;5034355;28;20398;-57
2021/04/12 11:48:08;;;;;;;0.50;0.22;;;22.70;29.90;;;;;;5033661;28;20391;-57
2021/04/12 11:50:37;;;;;;;0.40;0.30;;;22.70;29.80;;;;;;5033591;28;20838;-57
2021/04/12 11:53:26;;;;;;;0.40;0.20;;;22.60;29.80;;;;;;5040461;28;20476;-59
2021/04/12 11:56:02;;;;;;;1.50;0.30;;;22.60;29.80;;;;;;5045031;28;20466;-59
2021/04/12 11:58:40;;;;;;;0.85;0.20;;;22.60;30.10;;;;;;5054492;28;20406;-57
2021/04/12 12:01:06;;;;;;;1.70;0.40;;;22.60;30.40;;;;;;5040860;28;20403;-57
2021/04/12 12:03:38;;;;;;;0.95;0.30;;;22.60;31.20;;;;;;5039856;28;20405;-59
2021/04/12 12:06:33;;;;;;;1.33;0.32;;;22.60;30.80;;;;;;5053681;28;20398;-58
2021/04/12 12:09:07;;;;;;;1.15;0.30;;;22.60;31.00;;;;;;5051175;28;20390;-57
2021/04/12 12:11:57;;;;;;;0.57;0.30;;;22.60;31.00;;;;;;5043664;28;20391;-57
2021/04/12 12:14:34;;;;;;;0.98;0.30;;;22.60;31.00;;;;;;5049196;28;20892;-57
2021/04/12 12:17:03;;;;;;;1.40;0.30;;;22.60;31.10;;;;;;5043657;28;20419;-64
2021/04/12 12:19:45;;;;;;;0.30;0.20;;;22.60;31.10;;;;;;5042797;28;20383;-59
2021/04/12 12:22:24;;;;;;;1.53;0.30;;;22.60;31.20;;;;;;5042874;28;20852;-58
2021/04/12 12:25:00;;;;;;;0.70;0.20;;;22.60;31.20;;;;;;5053794;28;20889;-60
2021/04/12 12:27:39;;;;;;;0.60;0.20;;;22.60;31.20;;;;;;5054120;28;20393;-58
2021/04/12 12:30:25;;;;;;;0.90;0.40;;;22.50;31.20;;;;;;5054042;28;20808;-58
2021/04/12 12:32:57;;;;;;;0.75;0.20;;;22.60;31.20;;;;;;5052259;28;20389;-58
2021/04/12 12:35:43;;;;;;;0.70;0.32;;;22.60;31.20;;;;;;5053863;28;20401;-57
2021/04/12 12:38:13;;;;;;;0.70;0.25;;;22.60;31.30;;;;;;5049930;28;20753;-58
2021/04/12 12:40:47;;;;;;;1.42;0.20;;;22.60;31.30;;;;;;5048027;28;20407;-57
2021/04/12 12:43:24;;;;;;;1.17;0.20;;;22.50;31.40;;;;;;5043475;28;20935;-58
2021/04/12 12:45:51;;;;;;;1.88;0.55;;;22.50;31.40;;;;;;5039962;28;20778;-58
2021/04/12 12:48:25;;;;;;;1.90;0.40;;;22.50;31.60;;;;;;5041535;28;20852;-57
2021/04/12 12:51:13;;;;;;;1.40;0.30;;;22.40;31.50;;;;;;5040107;28;20401;-58
2021/04/12 12:53:43;;;;;;;0.52;0.30;;;22.50;31.50;;;;;;5040435;28;20914;-58
2021/04/12 12:56:12;;;;;;;3.20;0.40;;;22.50;31.10;;;;;;5040151;28;20425;-60
2021/04/12 12:58:39;;;;;;;0.70;0.30;;;22.50;31.20;;;;;;5040285;28;20414;-59
2021/04/12 13:01:09;;;;;;;3.50;0.52;;;22.50;31.20;;;;;;5040548;28;20393;-67
2021/04/12 13:03:39;;;;;;;2.42;0.45;;;22.50;31.60;;;;;;5039712;28;20391;-65
2021/04/12 13:06:17;;;;;;;0.50;0.30;;;22.50;31.50;;;;;;5035882;28;20414;-66
2021/04/12 13:09:21;;;;;;;0.95;0.30;;;22.40;31.70;;;;;;5031495;28;20514;-59
2021/04/12 13:11:53;;;;;;;2.55;0.43;;;22.50;32.30;;;;;;5030366;28;20431;-59
2021/04/12 13:14:38;;;;;;;2.60;0.40;;;22.50;32.20;;;;;;5035406;28;20796;-58
2021/04/12 13:17:32;;;;;;;1.20;0.40;;;22.50;31.80;;;;;;5045277;28;20421;-59
2021/04/12 13:20:03;;;;;;;1.15;0.30;;;22.60;31.70;;;;;;5052549;28;20531;-64
2021/04/12 13:22:36;;;;;;;0.97;0.30;;;22.50;31.90;;;;;;5045207;28;20380;-59
2021/04/12 13:25:17;;;;;;;1.50;0.30;;;22.60;31.80;;;;;;5032192;28;20391;-67
2021/04/12 13:27:46;;;;;;;0.52;0.32;;;22.60;31.40;;;;;;5032665;28;20390;-62
2021/04/12 13:30:19;;;;;;;1.60;0.30;;;22.60;31.40;;;;;;5032664;28;20383;-67
2021/04/12 13:32:54;;;;;;;1.10;0.30;;;22.60;31.10;;;;;;5032424;28;20400;-68
2021/04/12 13:35:23;;;;;;;1.30;0.30;;;22.60;31.30;;;;;;5032487;28;20375;-68
2021/04/12 13:37:48;;;;;;;1.77;0.40;;;22.60;31.00;;;;;;5031033;28;20399;-66
2021/04/12 13:40:22;;;;;;;2.30;0.30;;;22.60;31.40;;;;;;5032485;28;20392;-65
2021/04/12 13:42:51;;;;;;;1.27;0.20;;;22.60;31.20;;;;;;5032051;28;20391;-60
2021/04/12 13:45:42;;;;;;;1.50;0.30;;;22.60;31.00;;;;;;5031263;28;20486;-62
2021/04/12 13:48:17;;;;;;;1.52;0.30;;;22.60;31.40;;;;;;5032455;28;20440;-63
2021/04/12 13:51:04;;;;;;;1.42;0.32;;;22.60;31.10;;;;;;5032158;28;20392;-66
2021/04/12 13:53:46;;;;;;;0.95;0.38;;;22.60;31.40;;;;;;5032330;28;20418;-62
2021/04/12 13:56:16;;;;;;;2.00;0.40;;;22.60;31.00;;;;;;5032421;28;20513;-59
2021/04/12 13:59:04;;;;;;;1.00;0.30;;;22.60;31.00;;;;;;5031240;28;20411;-67
2021/04/12 14:01:51;;;;;;;1.55;0.40;;;22.60;30.60;;;;;;5032110;28;20398;-62
2021/04/12 14:04:20;;;;;;;4.13;0.50;;;22.60;30.50;;;;;;5031639;28;20410;-59
2021/04/12 14:06:55;;;;;;;2.53;0.45;;;22.60;31.20;;;;;;5032001;28;20422;-66
2021/04/12 14:09:35;;;;;;;3.92;0.55;;;22.60;31.20;;;;;;5032107;28;20402;-67
2021/04/12 14:12:22;;;;;;;1.40;0.40;;;22.60;31.20;;;;;;5032242;28;20387;-68
2021/04/12 14:14:57;;;;;;;1.90;0.40;;;22.60;31.20;;;;;;5030519;28;20430;-67
2021/04/12 14:17:26;;;;;;;2.85;0.40;;;22.60;30.90;;;;;;5031714;28;20959;-64
2021/04/12 14:20:00;;;;;;;1.20;0.40;;;22.60;31.10;;;;;;5032029;28;20446;-68